NCAR-RAP Real-Time Weather Data

Output produced by METARs form (20 February 2019  17:05 UTC)
found at http://weather.rap.ucar.edu/surface/
 
RJAA 201630Z 36009KT 9999 -SHRA FEW008 BKN040 08/07 Q1012 NOSIG RMK 1ST008 7CU040 A2991
 
 
RJAH 201642Z 36005KT 9999 FEW015 SCT030 BKN060 07/07 Q1013 RMK 1CU015 3CU030 7SC060 A2991
 
RJGG 201630Z 33021KT 9999 FEW030 BKN/// 09/03 Q1019 NOSIG
 
RJNK 201600Z 32015KT 9999 FEW015 SCT030 BKN050 07/M01 Q1022
 
RJNT 201200Z 23004KT 8000 -SHRA FEW005 SCT010 BKN020 06/05 Q1020
 
 
 
 
 
RJTT 201630Z 03005KT 9999 FEW010 BKN050 10/09 Q1013 NOSIG RMK 1CU010 7SC050 A2992